createdAt,value
2018-02-25T00:00:54.049Z,58.77
2018-02-25T00:03:23.423Z,56.77
2018-02-25T00:05:51.976Z,67.83
2018-02-25T00:08:20.532Z,60.07
2018-02-25T00:10:49.121Z,59.50
2018-02-25T00:13:17.665Z,55.10
2018-02-25T00:15:46.214Z,43.17
2018-02-25T00:18:15.580Z,38.00
2018-02-25T00:20:44.124Z,37.47
2018-02-25T00:23:12.677Z,40.87
2018-02-25T00:25:41.271Z,45.40
2018-02-25T00:28:09.819Z,44.03
2018-02-25T00:30:38.362Z,30.33
2018-02-25T00:33:07.722Z,24.27
2018-02-25T00:35:36.269Z,24.90
2018-02-25T00:38:04.812Z,28.20
2018-02-25T00:40:33.400Z,25.37
2018-02-25T00:43:01.957Z,29.73
2018-02-25T00:45:30.542Z,30.57
2018-02-25T00:47:59.129Z,27.20
2018-02-25T00:50:28.441Z,32.40
2018-02-25T00:52:56.984Z,26.07
2018-02-25T00:55:25.573Z,29.90
2018-02-25T00:57:54.116Z,29.40
2018-02-25T01:00:23.449Z,35.13
2018-02-25T01:02:52.167Z,33.07
2018-02-25T01:05:20.712Z,24.43
2018-02-25T01:07:49.259Z,27.03
2018-02-25T01:10:18.729Z,23.23
2018-02-25T01:12:47.306Z,21.37
2018-02-25T01:15:15.852Z,24.27
2018-02-25T01:17:45.204Z,29.63
2018-02-25T01:20:13.752Z,35.53
2018-02-25T01:22:42.311Z,26.03
2018-02-25T01:25:11.953Z,29.33
2018-02-25T01:27:40.497Z,27.33
2018-02-25T01:30:09.809Z,27.13
2018-02-25T01:32:39.168Z,23.63
2018-02-25T01:35:07.712Z,23.70
2018-02-25T01:37:36.252Z,29.20
2018-02-25T01:40:05.319Z,24.50
2018-02-25T01:42:33.873Z,20.03
2018-02-25T01:45:02.412Z,15.60
2018-02-25T01:47:31.378Z,24.07
2018-02-25T01:49:59.924Z,28.00
2018-02-25T01:52:28.473Z,23.80
2018-02-25T01:54:57.077Z,21.83
2018-02-25T01:57:26.384Z,24.33
2018-02-25T01:59:54.937Z,24.13
2018-02-25T02:02:23.539Z,24.00
2018-02-25T02:04:52.844Z,23.40
2018-02-25T02:07:22.150Z,21.50
2018-02-25T02:09:51.652Z,21.73
2018-02-25T02:12:20.201Z,14.07
2018-02-25T02:14:48.761Z,13.60
2018-02-25T02:17:17.560Z,14.03
2018-02-25T02:19:46.133Z,17.23
2018-02-25T02:22:14.671Z,22.13
2018-02-25T02:24:44.024Z,17.27
2018-02-25T02:27:12.564Z,13.43
2018-02-25T02:29:41.100Z,15.27
2018-02-25T02:32:09.870Z,14.43
2018-02-25T02:34:38.415Z,15.67
2018-02-25T02:37:06.960Z,13.10
2018-02-25T02:39:35.649Z,11.33
2018-02-25T02:42:04.222Z,18.53
2018-02-25T02:44:33.529Z,12.03
2018-02-25T02:47:02.899Z,12.23
2018-02-25T02:49:31.453Z,13.73
2018-02-25T02:51:59.990Z,9.00
2018-02-25T02:54:28.583Z,15.37
2018-02-25T02:56:57.150Z,10.43
2018-02-25T02:59:25.695Z,12.27
2018-02-25T03:01:54.469Z,15.83
2018-02-25T03:04:23.040Z,14.77
2018-02-25T03:06:52.349Z,15.37
2018-02-25T03:09:21.042Z,15.67
2018-02-25T03:11:49.586Z,14.80
2018-02-25T03:14:18.138Z,16.20
2018-02-25T03:16:46.928Z,14.77
2018-02-25T03:19:15.465Z,16.30
2018-02-25T03:21:44.773Z,12.93
2018-02-25T03:24:13.379Z,17.17
2018-02-25T03:26:41.912Z,9.70
2018-02-25T03:29:10.484Z,14.87
2018-02-25T03:31:39.169Z,11.07
2018-02-25T03:34:07.741Z,21.70
2018-02-25T03:36:36.284Z,31.40
2018-02-25T03:39:05.036Z,23.83
2018-02-25T03:41:33.589Z,25.90
2018-02-25T03:44:02.136Z,28.83
2018-02-25T03:46:31.588Z,30.30
2018-02-25T03:49:00.897Z,25.30
2018-02-25T03:51:29.452Z,28.70
2018-02-25T03:53:58.045Z,23.17
2018-02-25T03:56:26.588Z,23.93
2018-02-25T03:58:55.133Z,26.87
2018-02-25T04:01:23.725Z,29.40
2018-02-25T04:03:53.035Z,27.17
2018-02-25T04:06:22.346Z,23.73
2018-02-25T04:08:51.282Z,21.30
2018-02-25T04:11:19.803Z,24.17
2018-02-25T04:13:49.115Z,27.73
2018-02-25T04:16:18.472Z,24.47
2018-02-25T04:18:47.048Z,26.43
2018-02-25T04:21:15.594Z,25.37
2018-02-25T04:23:44.203Z,27.97
2018-02-25T04:26:12.733Z,28.93
2018-02-25T04:28:42.785Z,26.93
2018-02-25T04:31:11.709Z,28.80
2018-02-25T04:33:40.251Z,24.43
2018-02-25T04:36:08.868Z,29.37
2018-02-25T04:38:37.456Z,31.17
2018-02-25T04:41:05.993Z,29.40
2018-02-25T04:43:35.304Z,27.37
2018-02-25T04:46:03.903Z,24.27
2018-02-25T04:48:32.444Z,29.70
2018-02-25T04:51:01.783Z,29.97
2018-02-25T04:53:30.552Z,24.70
2018-02-25T04:55:59.896Z,31.17
2018-02-25T04:58:28.439Z,35.57
2018-02-25T05:00:57.136Z,66.50
2018-02-25T05:03:25.685Z,32.63
2018-02-25T05:05:55.000Z,35.90
2018-02-25T05:08:24.552Z,62.10
2018-02-25T05:10:53.097Z,80.90
2018-02-25T05:13:21.653Z,69.37
2018-02-25T05:15:51.206Z,51.23
2018-02-25T05:18:19.756Z,60.87
2018-02-25T05:20:49.070Z,31.77
2018-02-25T05:23:17.660Z,32.53
2018-02-25T05:25:46.216Z,32.37
2018-02-25T05:28:15.555Z,30.80
2018-02-25T05:30:44.157Z,32.03
2018-02-25T05:33:12.701Z,28.30
2018-02-25T05:35:41.254Z,36.47
2018-02-25T05:38:09.848Z,35.33
2018-02-25T05:40:39.161Z,37.43
2018-02-25T05:43:07.709Z,50.63
2018-02-25T05:45:36.312Z,34.80
2018-02-25T05:48:04.862Z,40.73
2018-02-25T05:50:33.406Z,48.83
2018-02-25T05:53:02.153Z,36.20
2018-02-25T05:55:30.724Z,41.20
2018-02-25T05:57:59.262Z,36.77
2018-02-25T06:00:27.856Z,53.73
2018-02-25T06:02:56.407Z,73.97
2018-02-25T06:05:24.952Z,79.40
2018-02-25T06:07:54.309Z,68.17
2018-02-25T06:10:22.856Z,33.23
2018-02-25T06:12:51.406Z,43.40
2018-02-25T06:15:20.977Z,32.20
2018-02-25T06:17:49.525Z,28.57
2018-02-25T06:20:18.089Z,36.07
2018-02-25T06:22:47.568Z,36.97
2018-02-25T06:25:16.120Z,34.37
2018-02-25T06:27:44.668Z,34.07
2018-02-25T06:30:14.209Z,31.00
2018-02-25T06:32:42.752Z,35.63
2018-02-25T06:35:12.103Z,34.07
2018-02-25T06:37:40.693Z,37.93
2018-02-25T06:40:09.266Z,33.13
2018-02-25T06:42:37.818Z,38.13
2018-02-25T06:45:06.637Z,37.10
2018-02-25T06:47:35.177Z,39.53
2018-02-25T06:50:04.499Z,37.83
2018-02-25T06:52:33.100Z,32.47
2018-02-25T06:55:01.639Z,41.33
2018-02-25T06:57:30.192Z,36.43
2018-02-25T06:59:58.793Z,44.03
2018-02-25T07:02:28.107Z,34.33
2018-02-25T07:04:57.424Z,41.83
2018-02-25T07:07:26.043Z,44.40
2018-02-25T07:09:54.593Z,34.03
2018-02-25T07:12:23.137Z,34.83
2018-02-25T07:14:51.901Z,26.00
2018-02-25T07:17:20.448Z,33.17
2018-02-25T07:19:48.996Z,42.63
2018-02-25T07:22:18.470Z,31.30
2018-02-25T07:24:47.016Z,33.73
2018-02-25T07:27:15.579Z,40.87
2018-02-25T07:29:45.188Z,45.43
2018-02-25T07:32:13.724Z,35.30
2018-02-25T07:34:43.075Z,33.40
2018-02-25T07:37:11.675Z,34.63
2018-02-25T07:39:40.224Z,34.27
2018-02-25T07:42:09.544Z,44.87
2018-02-25T07:44:39.062Z,24.60
2018-02-25T07:47:07.618Z,40.93
2018-02-25T07:49:36.932Z,35.73
2018-02-25T07:52:06.310Z,30.40
2018-02-25T07:54:35.629Z,36.50
2018-02-25T07:57:04.184Z,40.97
2018-02-25T07:59:32.794Z,30.53
2018-02-25T08:02:02.112Z,36.00
2018-02-25T08:04:30.670Z,42.50
2018-02-25T08:07:00.041Z,28.63
2018-02-25T08:09:28.638Z,25.93
2018-02-25T08:11:58.077Z,38.03
2018-02-25T08:14:27.537Z,24.07
2018-02-25T08:16:56.088Z,27.60
2018-02-25T08:19:24.672Z,36.60
2018-02-25T08:21:53.478Z,31.53
2018-02-25T08:24:22.075Z,36.97
2018-02-25T08:26:50.648Z,36.60
2018-02-25T08:29:19.244Z,40.73
2018-02-25T08:31:47.800Z,30.47
2018-02-25T08:34:16.352Z,22.40
2018-02-25T08:36:44.954Z,35.83
2018-02-25T08:39:13.550Z,33.67
2018-02-25T08:41:42.096Z,38.87
2018-02-25T08:44:11.565Z,40.30
2018-02-25T08:46:40.117Z,36.50
2018-02-25T08:49:08.673Z,32.53
2018-02-25T08:51:37.296Z,34.07
2018-02-25T08:54:06.656Z,37.43
2018-02-25T08:56:36.572Z,32.50
2018-02-25T08:59:05.937Z,35.03
2018-02-25T09:01:34.499Z,30.73
2018-02-25T09:04:03.051Z,32.20
2018-02-25T09:06:31.654Z,31.53
2018-02-25T09:09:00.211Z,23.83
2018-02-25T09:11:28.756Z,33.67
2018-02-25T09:13:57.516Z,35.10
2018-02-25T09:16:26.102Z,36.90
2018-02-25T09:18:54.660Z,35.77
2018-02-25T09:21:23.540Z,39.33
2018-02-25T09:23:52.088Z,39.60
2018-02-25T09:26:20.646Z,35.27
2018-02-25T09:28:49.249Z,35.07
2018-02-25T09:31:17.813Z,29.43
2018-02-25T09:33:46.372Z,24.63
2018-02-25T09:36:14.975Z,32.70
2018-02-25T09:38:44.172Z,40.93
2018-02-25T09:41:12.734Z,27.70
2018-02-25T09:43:41.541Z,33.07
2018-02-25T09:46:10.088Z,26.50
2018-02-25T09:48:38.664Z,28.87
2018-02-25T09:51:08.036Z,38.13
2018-02-25T09:53:36.592Z,31.23
2018-02-25T09:56:05.144Z,45.50
2018-02-25T09:58:34.510Z,29.23
2018-02-25T10:01:04.568Z,32.27
2018-02-25T10:03:33.124Z,30.93
2018-02-25T10:06:02.493Z,27.73
2018-02-25T10:08:31.053Z,33.47
2018-02-25T10:10:59.673Z,30.90
2018-02-25T10:13:28.377Z,27.87
2018-02-25T10:15:57.697Z,27.33
2018-02-25T10:18:26.251Z,34.57
2018-02-25T10:20:55.629Z,29.90
2018-02-25T10:23:24.186Z,27.37
2018-02-25T10:25:52.728Z,24.13
2018-02-25T10:28:23.066Z,26.67
2018-02-25T10:30:51.625Z,32.00
2018-02-25T10:33:20.181Z,24.47
2018-02-25T10:35:49.044Z,26.30
2018-02-25T10:38:17.628Z,33.40
2018-02-25T10:40:46.189Z,28.33
2018-02-25T10:43:14.792Z,26.30
2018-02-25T10:45:43.348Z,30.13
2018-02-25T10:48:11.929Z,30.97
2018-02-25T10:50:40.679Z,26.27
2018-02-25T10:53:09.999Z,25.80
2018-02-25T10:55:39.400Z,37.30
2018-02-25T10:58:08.007Z,30.57
2018-02-25T11:00:42.021Z,35.23
2018-02-25T11:03:10.934Z,17.90
2018-02-25T11:05:39.493Z,29.53
2018-02-25T11:08:08.053Z,28.43
2018-02-25T11:10:36.662Z,27.17
2018-02-25T11:13:05.232Z,32.73
2018-02-25T11:15:33.840Z,35.30
2018-02-25T11:18:02.425Z,41.17
2018-02-25T11:20:30.964Z,34.17
2018-02-25T11:23:01.058Z,48.30
2018-02-25T11:25:29.657Z,53.23
2018-02-25T11:27:58.973Z,43.30
2018-02-25T11:30:27.528Z,39.70
2018-02-25T11:32:56.492Z,35.83
2018-02-25T11:35:25.814Z,28.07
2018-02-25T11:37:54.382Z,33.90
2018-02-25T11:40:23.129Z,37.77
2018-02-25T11:42:51.672Z,34.33
2018-02-25T11:45:20.229Z,38.30
2018-02-25T11:47:49.104Z,38.17
2018-02-25T11:50:17.650Z,24.63
2018-02-25T11:52:46.968Z,27.70
2018-02-25T11:55:15.643Z,34.20
2018-02-25T11:57:44.956Z,30.93
2018-02-25T12:00:13.504Z,23.77
2018-02-25T12:02:43.075Z,34.13
2018-02-25T12:05:11.625Z,41.53
2018-02-25T12:07:40.185Z,32.07
2018-02-25T12:10:09.850Z,32.83
2018-02-25T12:12:38.396Z,33.47
2018-02-25T12:15:06.952Z,32.90
2018-02-25T12:17:35.649Z,36.27
2018-02-25T12:20:05.301Z,33.77
2018-02-25T12:22:33.852Z,49.47
2018-02-25T12:25:02.559Z,49.93
2018-02-25T12:27:31.128Z,78.77
2018-02-25T12:30:00.043Z,66.63
2018-02-25T12:32:30.609Z,47.43
2018-02-25T12:34:59.172Z,31.77
2018-02-25T12:37:27.724Z,34.03
2018-02-25T12:39:56.433Z,23.93
2018-02-25T12:42:25.728Z,35.00
2018-02-25T12:44:54.532Z,29.97
2018-02-25T12:47:23.313Z,33.10
2018-02-25T12:49:51.865Z,43.53
2018-02-25T12:52:21.080Z,37.13
2018-02-25T12:54:49.677Z,48.13
2018-02-25T12:57:18.331Z,37.13
2018-02-25T12:59:46.880Z,36.30
2018-02-25T13:02:16.397Z,31.47
2018-02-25T13:04:45.713Z,27.17
2018-02-25T13:07:14.265Z,30.03
2018-02-25T13:09:42.869Z,36.37
2018-02-25T13:12:12.177Z,34.70
2018-02-25T13:14:40.724Z,44.80
2018-02-25T13:17:09.321Z,31.57
2018-02-25T13:19:37.876Z,25.27
2018-02-25T13:22:06.424Z,22.77
2018-02-25T13:24:35.018Z,24.43
2018-02-25T13:27:03.559Z,32.27
2018-02-25T13:29:32.873Z,37.77
2018-02-25T13:32:02.233Z,29.23
2018-02-25T13:34:30.826Z,34.37
2018-02-25T13:36:59.377Z,31.07
2018-02-25T13:39:28.176Z,27.07
2018-02-25T13:41:56.724Z,32.23
2018-02-25T13:44:25.283Z,34.30
2018-02-25T13:46:54.645Z,29.47
2018-02-25T13:49:23.197Z,27.80
2018-02-25T13:51:51.816Z,31.10
2018-02-25T13:54:21.249Z,32.23
2018-02-25T13:56:50.576Z,34.33
2018-02-25T13:59:19.128Z,32.57
2018-02-25T14:01:47.829Z,31.10
2018-02-25T14:04:17.148Z,33.47
2018-02-25T14:06:45.696Z,42.87
2018-02-25T14:09:15.067Z,35.17
2018-02-25T14:11:43.612Z,39.80
2018-02-25T14:14:12.914Z,30.93
2018-02-25T14:16:41.659Z,29.63
2018-02-25T14:19:10.264Z,36.00
2018-02-25T14:21:39.628Z,29.60
2018-02-25T14:24:08.608Z,32.10
2018-02-25T14:26:37.161Z,25.10
2018-02-25T14:29:06.553Z,31.37
2018-02-25T14:31:36.317Z,32.83
2018-02-25T14:34:04.903Z,29.40
2018-02-25T14:36:33.451Z,25.93
2018-02-25T14:39:02.373Z,34.77
2018-02-25T14:41:30.929Z,31.57
2018-02-25T14:43:59.480Z,27.00
2018-02-25T14:46:29.128Z,31.67
2018-02-25T14:48:57.682Z,30.80
2018-02-25T14:51:26.232Z,32.63
2018-02-25T14:53:55.104Z,33.33
2018-02-25T14:56:23.747Z,30.67
2018-02-25T14:58:52.470Z,29.93
2018-02-25T15:01:21.180Z,33.20
2018-02-25T15:03:50.520Z,31.70
2018-02-25T15:06:19.213Z,35.53
2018-02-25T15:08:48.210Z,34.13
2018-02-25T15:11:16.764Z,32.20
2018-02-25T15:13:45.313Z,44.67
2018-02-25T15:16:15.076Z,33.07
2018-02-25T15:18:44.830Z,30.93
2018-02-25T15:21:14.141Z,40.27
2018-02-25T15:23:43.686Z,38.50
2018-02-25T15:26:12.229Z,35.07
2018-02-25T15:28:40.964Z,32.77
2018-02-25T15:31:09.753Z,34.07
2018-02-25T15:33:38.301Z,33.10
2018-02-25T15:36:06.847Z,37.47
2018-02-25T15:38:35.449Z,38.47
2018-02-25T15:41:04.759Z,33.30
2018-02-25T15:43:34.069Z,35.47
2018-02-25T15:46:02.914Z,32.43
2018-02-25T15:48:31.678Z,36.07
2018-02-25T15:51:00.224Z,37.57
2018-02-25T15:53:29.049Z,49.47
2018-02-25T15:55:57.588Z,35.57
2018-02-25T15:58:26.137Z,37.73
2018-02-25T16:00:54.880Z,36.93
2018-02-25T16:03:25.108Z,32.87
2018-02-25T16:05:54.428Z,31.03
2018-02-25T16:08:23.174Z,31.17
2018-02-25T16:10:51.725Z,29.70
2018-02-25T16:13:20.274Z,35.93
2018-02-25T16:15:49.152Z,34.10
2018-02-25T16:18:18.462Z,35.27
2018-02-25T16:20:47.004Z,60.73
2018-02-25T16:23:15.713Z,41.83
2018-02-25T16:25:45.177Z,92.00
2018-02-25T16:28:13.820Z,47.03
2018-02-25T16:30:42.691Z,80.60
2018-02-25T16:33:12.156Z,77.60
2018-02-25T16:35:40.709Z,100.07
2018-02-25T16:38:09.301Z,91.60
2018-02-25T16:40:37.845Z,85.97
2018-02-25T16:43:07.149Z,72.60
2018-02-25T16:45:36.515Z,67.77
2018-02-25T16:48:05.057Z,43.33
2018-02-25T16:50:34.589Z,25.53
2018-02-25T16:53:03.374Z,35.87
2018-02-25T16:55:31.912Z,40.33
2018-02-25T16:58:01.221Z,38.43
2018-02-25T17:00:29.949Z,40.97
2018-02-25T17:02:58.500Z,35.30
2018-02-25T17:05:27.031Z,41.20
2018-02-25T17:07:55.801Z,42.10
2018-02-25T17:10:24.341Z,38.87
2018-02-25T17:12:52.885Z,39.30
2018-02-25T17:15:23.081Z,36.43
2018-02-25T17:17:51.668Z,42.03
2018-02-25T17:20:20.232Z,40.50
2018-02-25T17:22:49.029Z,43.73
2018-02-25T17:25:17.577Z,39.93
2018-02-25T17:27:46.896Z,47.03
2018-02-25T17:30:15.601Z,33.83
2018-02-25T17:32:44.145Z,38.70
2018-02-25T17:35:12.697Z,39.43
2018-02-25T17:37:41.397Z,42.10
2018-02-25T17:40:10.708Z,46.70
2018-02-25T17:42:40.021Z,41.50
2018-02-25T17:45:08.947Z,42.37
2018-02-25T17:47:37.492Z,33.57
2018-02-25T17:50:06.319Z,44.40
2018-02-25T17:52:35.061Z,44.93
2018-02-25T17:55:03.613Z,38.13
2018-02-25T17:57:32.174Z,38.37
2018-02-25T18:00:00.957Z,38.17
2018-02-25T18:02:29.504Z,45.00
2018-02-25T18:04:58.060Z,33.97
2018-02-25T18:07:26.788Z,33.43
2018-02-25T18:09:55.340Z,39.10
2018-02-25T18:12:23.897Z,37.83
2018-02-25T18:14:53.653Z,38.53
2018-02-25T18:17:22.969Z,39.90
2018-02-25T18:19:51.540Z,38.40
2018-02-25T18:22:20.247Z,41.77
2018-02-25T18:24:48.810Z,31.60
2018-02-25T18:27:17.363Z,37.23
2018-02-25T18:29:46.037Z,36.77
2018-02-25T18:32:14.585Z,38.27
2018-02-25T18:34:43.908Z,39.27
2018-02-25T18:37:13.361Z,41.87
2018-02-25T18:39:41.913Z,39.80
2018-02-25T18:42:10.465Z,37.43
2018-02-25T18:44:39.824Z,40.97
2018-02-25T18:47:08.388Z,29.87
2018-02-25T18:49:36.949Z,43.20
2018-02-25T18:52:05.557Z,46.17
2018-02-25T18:54:34.113Z,32.37
2018-02-25T18:57:02.660Z,39.40
2018-02-25T18:59:31.300Z,42.70
2018-02-25T19:01:59.862Z,38.90
2018-02-25T19:04:28.445Z,38.63
2018-02-25T19:06:57.144Z,37.10
2018-02-25T19:09:25.688Z,33.97
2018-02-25T19:11:54.239Z,36.73
2018-02-25T19:14:22.930Z,31.73
2018-02-25T19:16:51.484Z,41.03
2018-02-25T19:19:20.034Z,43.70
2018-02-25T19:21:49.392Z,34.43
2018-02-25T19:24:17.940Z,38.43
2018-02-25T19:26:46.489Z,38.77
2018-02-25T19:29:15.093Z,37.93
2018-02-25T19:31:44.404Z,35.50
2018-02-25T19:34:12.974Z,35.87
2018-02-25T19:36:48.060Z,39.13
2018-02-25T19:39:22.013Z,36.47
2018-02-25T19:41:55.657Z,31.70
2018-02-25T19:44:24.203Z,33.90
2018-02-25T19:46:53.518Z,30.50
2018-02-25T19:49:22.217Z,35.43
2018-02-25T19:51:50.774Z,33.33
2018-02-25T19:54:19.322Z,30.63
2018-02-25T19:56:48.192Z,33.90
2018-02-25T19:59:16.740Z,30.70
2018-02-25T20:01:45.292Z,32.77
2018-02-25T20:04:13.896Z,32.07
2018-02-25T20:06:42.445Z,35.03
2018-02-25T20:09:11.006Z,30.10
2018-02-25T20:11:39.600Z,35.03
2018-02-25T20:14:08.156Z,27.90
2018-02-25T20:19:02.468Z,30.60
2018-02-25T20:21:31.017Z,27.43
2018-02-25T20:23:59.552Z,28.33
2018-02-25T20:26:28.297Z,30.67
2018-02-25T20:28:56.844Z,28.57
2018-02-25T20:31:26.167Z,28.30
2018-02-25T20:33:55.844Z,30.40
2018-02-25T20:36:24.397Z,25.53
2018-02-25T20:38:52.945Z,27.57
2018-02-25T20:41:21.553Z,33.20
2018-02-25T20:43:50.108Z,31.40
2018-02-25T20:46:18.660Z,27.13
2018-02-25T20:48:47.535Z,30.33
2018-02-25T20:51:16.092Z,33.17
2018-02-25T20:53:44.640Z,35.23
2018-02-25T20:56:14.101Z,33.37
2018-02-25T20:58:42.668Z,94.10
2018-02-25T21:01:11.224Z,31.90
2018-02-25T21:03:39.821Z,40.63
2018-02-25T21:06:08.373Z,48.63
2018-02-25T21:08:37.690Z,38.20
2018-02-25T21:11:06.289Z,34.73
2018-02-25T21:13:34.841Z,40.07
2018-02-25T21:16:04.145Z,32.00
2018-02-25T21:18:32.981Z,42.00
2018-02-25T21:21:01.541Z,29.73
2018-02-25T21:23:30.088Z,32.33
2018-02-25T21:25:59.572Z,31.47
2018-02-25T21:28:28.129Z,33.87
2018-02-25T21:30:56.684Z,28.67
2018-02-25T21:33:25.497Z,29.87
2018-02-25T21:35:54.048Z,33.07
2018-02-25T21:38:22.600Z,34.43
2018-02-25T21:40:51.972Z,28.70
2018-02-25T21:43:20.521Z,27.60
2018-02-25T21:45:49.072Z,36.17
2018-02-25T21:48:18.713Z,44.87
2018-02-25T21:50:47.264Z,27.70
2018-02-25T21:53:16.581Z,28.77
2018-02-25T21:55:50.824Z,36.00
2018-02-25T21:58:24.949Z,36.90
2018-02-25T22:00:59.422Z,41.07
2018-02-25T22:03:37.217Z,33.27
2018-02-25T22:06:06.592Z,41.10
2018-02-25T22:08:35.141Z,53.17
2018-02-25T22:11:03.692Z,41.07
2018-02-25T22:13:33.066Z,45.40
2018-02-25T22:16:01.622Z,66.43
2018-02-25T22:18:30.173Z,43.00
2018-02-25T22:20:58.775Z,46.20
2018-02-25T22:23:27.317Z,49.13
2018-02-25T22:25:56.660Z,54.23
2018-02-25T22:28:25.273Z,28.93
2018-02-25T22:30:53.836Z,48.53
2018-02-25T22:33:22.389Z,25.63
2018-02-25T22:35:51.072Z,39.30
2018-02-25T22:38:19.621Z,40.00
2018-02-25T22:40:48.171Z,36.50
2018-02-25T22:43:17.165Z,27.77
2018-02-25T22:45:45.708Z,34.17
2018-02-25T22:48:14.259Z,30.50
2018-02-25T22:50:43.128Z,21.67
2018-02-25T22:53:11.677Z,34.07
2018-02-25T22:55:40.221Z,23.77
2018-02-25T22:58:10.335Z,17.03
2018-02-25T23:00:38.888Z,38.30
2018-02-25T23:03:07.434Z,26.27
2018-02-25T23:05:36.040Z,36.47
2018-02-25T23:08:04.588Z,18.00
2018-02-25T23:10:33.137Z,27.93
2018-02-25T23:13:01.733Z,27.73
2018-02-25T23:15:30.283Z,19.17
2018-02-25T23:17:58.832Z,22.97
2018-02-25T23:20:27.493Z,30.47
2018-02-25T23:22:56.808Z,29.47
2018-02-25T23:25:26.128Z,31.73
2018-02-25T23:27:54.736Z,36.17
2018-02-25T23:30:23.287Z,41.37
2018-02-25T23:32:51.836Z,25.17
2018-02-25T23:35:20.576Z,30.50
2018-02-25T23:37:49.121Z,32.70
2018-02-25T23:40:18.436Z,34.97
2018-02-25T23:42:47.028Z,38.23
2018-02-25T23:45:15.626Z,33.50
2018-02-25T23:47:44.174Z,40.23
2018-02-25T23:50:13.533Z,32.23
2018-02-25T23:52:42.080Z,32.90
2018-02-25T23:55:10.637Z,41.53
2018-02-25T23:57:39.995Z,33.83
